Weather at Netaji Subhash Chandra Bose International Airport

Public forecast

Using degrees Celsius for public forecast. Weather courtesy of forecast.io.

Current aviation weather report (METAR) for Netaji Subhash Chandra Bose International Airport

2024/06/16 18:00 (retrieved 24 minutes ago)

VECC 161800Z 18011KT 3500 HZ SCT020 SCT100 31/28 Q1001 NOSIG

Aviation forecast (TAF) for Netaji Subhash Chandra Bose International Airport

2024/06/16 18:40 (retrieved 0 seconds ago)

TAF VECC 161700Z 1618/1724 18010KT 3500 HZ SCT020 SCT100 BECMG 1700/1702 2800 -RA HZ SCT018 BKN100 BECMG 1703/1705 3500 HZ TEMPO 1710/1714 26015G25KT 1500 TSRA SCT015 FEW025CB OVC090 BECMG 1720/1722 2800 HZ